sensor_id;sensor_type;location;lat;lon;timestamp;pressure;altitude;pressure_sealevel;temperature;humidity
49178;BME280;35016;55.674;37.468;2023-10-19T00:00:41;98048.56;;;5.71;76.10
49178;BME280;35016;55.674;37.468;2023-10-19T00:03:12;98049.34;;;5.71;76.61
49178;BME280;35016;55.674;37.468;2023-10-19T00:05:40;98050.16;;;5.72;76.35
49178;BME280;35016;55.674;37.468;2023-10-19T00:08:12;98048.56;;;5.71;76.59
49178;BME280;35016;55.674;37.468;2023-10-19T00:10:41;98040.47;;;5.71;76.02
49178;BME280;35016;55.674;37.468;2023-10-19T00:13:10;98052.31;;;5.70;76.00
49178;BME280;35016;55.674;37.468;2023-10-19T00:15:39;98053.66;;;5.67;76.66
49178;BME280;35016;55.674;37.468;2023-10-19T00:18:16;98047.72;;;5.65;76.23
49178;BME280;35016;55.674;37.468;2023-10-19T00:20:45;98044.75;;;5.62;76.40
49178;BME280;35016;55.674;37.468;2023-10-19T00:23:13;98048.00;;;5.64;76.40
49178;BME280;35016;55.674;37.468;2023-10-19T00:25:40;98057.16;;;5.68;76.31
49178;BME280;35016;55.674;37.468;2023-10-19T00:28:08;98042.63;;;5.69;76.89
49178;BME280;35016;55.674;37.468;2023-10-19T00:30:35;98046.66;;;5.71;76.74
49178;BME280;35016;55.674;37.468;2023-10-19T00:33:03;98039.41;;;5.72;76.35
49178;BME280;35016;55.674;37.468;2023-10-19T00:35:44;98045.06;;;5.75;76.43
49178;BME280;35016;55.674;37.468;2023-10-19T00:38:14;98036.72;;;5.77;76.67
49178;BME280;35016;55.674;37.468;2023-10-19T00:40:54;98031.94;;;5.79;76.50
49178;BME280;35016;55.674;37.468;2023-10-19T00:43:34;98039.72;;;5.80;76.30
49178;BME280;35016;55.674;37.468;2023-10-19T00:46:14;98039.19;;;5.83;76.74
49178;BME280;35016;55.674;37.468;2023-10-19T00:48:45;98043.50;;;5.84;76.28
49178;BME280;35016;55.674;37.468;2023-10-19T00:51:14;98042.69;;;5.84;75.88
49178;BME280;35016;55.674;37.468;2023-10-19T00:54:04;98043.50;;;5.84;76.47
49178;BME280;35016;55.674;37.468;2023-10-19T00:56:37;98045.94;;;5.86;76.16
49178;BME280;35016;55.674;37.468;2023-10-19T00:59:08;98045.94;;;5.86;76.19
49178;BME280;35016;55.674;37.468;2023-10-19T01:01:52;98048.63;;;5.86;76.49
49178;BME280;35016;55.674;37.468;2023-10-19T01:04:22;98049.69;;;5.85;76.15
49178;BME280;35016;55.674;37.468;2023-10-19T01:07:00;98048.88;;;5.84;76.25
49178;BME280;35016;55.674;37.468;2023-10-19T01:09:43;98052.66;;;5.83;76.29
49178;BME280;35016;55.674;37.468;2023-10-19T01:12:11;98040.28;;;5.82;76.49
49178;BME280;35016;55.674;37.468;2023-10-19T01:15:13;98042.16;;;5.82;76.24
49178;BME280;35016;55.674;37.468;2023-10-19T01:17:42;98048.88;;;5.79;76.20
49178;BME280;35016;55.674;37.468;2023-10-19T01:20:13;98040.81;;;5.79;76.10
49178;BME280;35016;55.674;37.468;2023-10-19T01:23:05;98033.81;;;5.78;76.34
49178;BME280;35016;55.674;37.468;2023-10-19T01:25:49;98039.19;;;5.78;76.45
49178;BME280;35016;55.674;37.468;2023-10-19T01:28:30;98037.31;;;5.79;76.08
49178;BME280;35016;55.674;37.468;2023-10-19T01:31:18;98034.34;;;5.80;75.75
49178;BME280;35016;55.674;37.468;2023-10-19T01:33:57;98035.97;;;5.81;75.89
49178;BME280;35016;55.674;37.468;2023-10-19T01:36:26;98034.09;;;5.82;76.05
49178;BME280;35016;55.674;37.468;2023-10-19T01:38:56;98035.97;;;5.81;76.13
49178;BME280;35016;55.674;37.468;2023-10-19T01:41:29;98038.66;;;5.81;76.22
49178;BME280;35016;55.674;37.468;2023-10-19T01:43:59;98029.22;;;5.79;76.52
49178;BME280;35016;55.674;37.468;2023-10-19T01:46:34;98033.81;;;5.78;76.43
49178;BME280;35016;55.674;37.468;2023-10-19T01:49:03;98034.03;;;5.77;75.84
49178;BME280;35016;55.674;37.468;2023-10-19T01:51:33;98035.13;;;5.76;76.49
49178;BME280;35016;55.674;37.468;2023-10-19T01:54:06;98042.38;;;5.75;76.54
49178;BME280;35016;55.674;37.468;2023-10-19T01:56:35;98036.50;;;5.78;76.42
49178;BME280;35016;55.674;37.468;2023-10-19T01:59:03;98035.66;;;5.78;76.29
49178;BME280;35016;55.674;37.468;2023-10-19T02:01:31;98030.53;;;5.76;75.84
49178;BME280;35016;55.674;37.468;2023-10-19T02:04:04;98026.78;;;5.77;75.93
49178;BME280;35016;55.674;37.468;2023-10-19T02:06:34;98032.97;;;5.78;76.08
49178;BME280;35016;55.674;37.468;2023-10-19T02:09:07;98032.72;;;5.79;76.48
49178;BME280;35016;55.674;37.468;2023-10-19T02:11:53;98028.16;;;5.80;75.90
49178;BME280;35016;55.674;37.468;2023-10-19T02:14:27;98036.78;;;5.82;75.93
49178;BME280;35016;55.674;37.468;2023-10-19T02:17:00;98037.59;;;5.82;75.54
49178;BME280;35016;55.674;37.468;2023-10-19T02:19:30;98033.28;;;5.81;76.22
49178;BME280;35016;55.674;37.468;2023-10-19T02:22:04;98033.81;;;5.78;75.58
49178;BME280;35016;55.674;37.468;2023-10-19T02:24:35;98026.28;;;5.80;76.16
49178;BME280;35016;55.674;37.468;2023-10-19T02:27:02;98025.47;;;5.80;76.28
49178;BME280;35016;55.674;37.468;2023-10-19T02:29:31;98033.00;;;5.83;76.21
49178;BME280;35016;55.674;37.468;2023-10-19T02:31:59;98022.47;;;5.71;75.63
49178;BME280;35016;55.674;37.468;2023-10-19T02:34:32;98023.88;;;5.84;75.58
49178;BME280;35016;55.674;37.468;2023-10-19T02:37:02;98030.84;;;5.85;76.29
49178;BME280;35016;55.674;37.468;2023-10-19T02:39:29;98029.25;;;5.84;75.91
49178;BME280;35016;55.674;37.468;2023-10-19T02:41:57;98024.66;;;5.84;76.17
49178;BME280;35016;55.674;37.468;2023-10-19T02:44:28;98034.09;;;5.87;75.86
49178;BME280;35016;55.674;37.468;2023-10-19T02:46:57;98033.81;;;5.88;75.88
49178;BME280;35016;55.674;37.468;2023-10-19T02:49:27;98026.81;;;5.87;75.79
49178;BME280;35016;55.674;37.468;2023-10-19T02:51:57;98043.28;;;5.91;75.65
49178;BME280;35016;55.674;37.468;2023-10-19T02:54:31;98030.63;;;5.92;76.00
49178;BME280;35016;55.674;37.468;2023-10-19T02:57:03;98036.81;;;5.92;76.20
49178;BME280;35016;55.674;37.468;2023-10-19T02:59:35;98027.41;;;5.89;75.72
49178;BME280;35016;55.674;37.468;2023-10-19T03:02:02;98017.44;;;5.90;75.91
49178;BME280;35016;55.674;37.468;2023-10-19T03:04:34;98018.00;;;5.92;75.90
49178;BME280;35016;55.674;37.468;2023-10-19T03:07:05;98020.41;;;5.94;75.95
49178;BME280;35016;55.674;37.468;2023-10-19T03:09:35;98024.72;;;5.95;75.97
49178;BME280;35016;55.674;37.468;2023-10-19T03:12:06;98022.84;;;5.95;75.77
49178;BME280;35016;55.674;37.468;2023-10-19T03:14:37;98030.38;;;5.93;75.80
49178;BME280;35016;55.674;37.468;2023-10-19T03:17:05;98026.59;;;5.94;75.64
49178;BME280;35016;55.674;37.468;2023-10-19T03:19:35;98029.03;;;5.96;76.15
49178;BME280;35016;55.674;37.468;2023-10-19T03:22:03;98028.22;;;5.95;75.46
49178;BME280;35016;55.674;37.468;2023-10-19T03:24:33;98030.91;;;5.95;76.05
49178;BME280;35016;55.674;37.468;2023-10-19T03:27:09;98034.41;;;5.96;75.53
49178;BME280;35016;55.674;37.468;2023-10-19T03:29:46;98022.84;;;5.95;75.90
49178;BME280;35016;55.674;37.468;2023-10-19T03:32:15;98030.09;;;5.95;75.51
49178;BME280;35016;55.674;37.468;2023-10-19T03:34:44;98031.97;;;5.94;75.73
49178;BME280;35016;55.674;37.468;2023-10-19T03:37:15;98025.78;;;5.94;75.83
49178;BME280;35016;55.674;37.468;2023-10-19T03:39:44;98027.69;;;5.93;75.93
49178;BME280;35016;55.674;37.468;2023-10-19T03:42:13;98025.78;;;5.94;75.52
49178;BME280;35016;55.674;37.468;2023-10-19T03:44:41;98020.41;;;5.94;75.47
49178;BME280;35016;55.674;37.468;2023-10-19T03:47:17;98025.78;;;5.94;75.71
49178;BME280;35016;55.674;37.468;2023-10-19T03:50:01;98026.59;;;5.94;75.76
49178;BME280;35016;55.674;37.468;2023-10-19T03:52:31;98030.09;;;5.95;75.83
49178;BME280;35016;55.674;37.468;2023-10-19T03:54:58;98032.78;;;5.95;75.45
49178;BME280;35016;55.674;37.468;2023-10-19T03:57:25;98034.69;;;5.94;75.09
49178;BME280;35016;55.674;37.468;2023-10-19T03:59:56;98034.94;;;5.93;75.14
49178;BME280;35016;55.674;37.468;2023-10-19T04:02:25;98036.81;;;5.92;75.76
49178;BME280;35016;55.674;37.468;2023-10-19T04:04:55;98041.13;;;5.93;75.82
49178;BME280;35016;55.674;37.468;2023-10-19T04:07:24;98032.78;;;5.95;75.65
49178;BME280;35016;55.674;37.468;2023-10-19T04:09:58;98037.38;;;5.94;75.39
49178;BME280;35016;55.674;37.468;2023-10-19T04:12:38;98027.63;;;5.88;75.16
49178;BME280;35016;55.674;37.468;2023-10-19T04:15:10;98028.22;;;5.95;75.69
49178;BME280;35016;55.674;37.468;2023-10-19T04:17:45;98034.13;;;5.97;75.49
49178;BME280;35016;55.674;37.468;2023-10-19T04:20:14;98034.13;;;5.97;75.79
49178;BME280;35016;55.674;37.468;2023-10-19T04:22:48;98039.78;;;6.01;75.42
49178;BME280;35016;55.674;37.468;2023-10-19T04:25:20;98036.84;;;6.02;75.41
49178;BME280;35016;55.674;37.468;2023-10-19T04:27:47;98032.25;;;5.98;75.16
49178;BME280;35016;55.674;37.468;2023-10-19T04:30:16;98037.09;;;6.01;75.26
49178;BME280;35016;55.674;37.468;2023-10-19T04:32:45;98040.06;;;5.99;75.09
49178;BME280;35016;55.674;37.468;2023-10-19T04:35:13;98036.03;;;6.02;75.79
49178;BME280;35016;55.674;37.468;2023-10-19T04:37:41;98046.78;;;6.02;75.44
49178;BME280;35016;55.674;37.468;2023-10-19T04:40:11;98044.63;;;6.04;74.94
49178;BME280;35016;55.674;37.468;2023-10-19T04:42:38;98038.19;;;6.05;75.18
49178;BME280;35016;55.674;37.468;2023-10-19T04:45:06;98050.31;;;6.07;75.29
49178;BME280;35016;55.674;37.468;2023-10-19T04:47:35;98041.19;;;6.08;75.10
49178;BME280;35016;55.674;37.468;2023-10-19T04:50:03;98044.69;;;6.09;75.36
49178;BME280;35016;55.674;37.468;2023-10-19T04:52:34;98039.31;;;6.09;75.25
49178;BME280;35016;55.674;37.468;2023-10-19T04:55:01;98043.59;;;6.10;75.06
49178;BME280;35016;55.674;37.468;2023-10-19T04:57:31;98035.81;;;6.08;75.44
49178;BME280;35016;55.674;37.468;2023-10-19T04:59:58;98043.59;;;6.10;75.31
49178;BME280;35016;55.674;37.468;2023-10-19T05:02:25;98039.56;;;6.12;75.73
49178;BME280;35016;55.674;37.468;2023-10-19T05:04:52;98038.50;;;6.13;75.39
49178;BME280;35016;55.674;37.468;2023-10-19T05:07:20;98039.56;;;6.17;75.03
49178;BME280;35016;55.674;37.468;2023-10-19T05:09:48;98041.19;;;6.18;75.43
49178;BME280;35016;55.674;37.468;2023-10-19T05:12:15;98036.88;;;6.22;75.52
49178;BME280;35016;55.674;37.468;2023-10-19T05:14:42;98043.34;;;6.27;75.55
49178;BME280;35016;55.674;37.468;2023-10-19T05:17:10;98041.47;;;6.27;75.59
49178;BME280;35016;55.674;37.468;2023-10-19T05:19:39;98045.78;;;6.28;74.91
49178;BME280;35016;55.674;37.468;2023-10-19T05:22:08;98040.94;;;6.30;75.01
49178;BME280;35016;55.674;37.468;2023-10-19T05:24:36;98041.72;;;6.31;75.20
49178;BME280;35016;55.674;37.468;2023-10-19T05:27:03;98049.00;;;6.35;74.95
49178;BME280;35016;55.674;37.468;2023-10-19T05:29:31;98051.47;;;6.37;75.12
49178;BME280;35016;55.674;37.468;2023-10-19T05:32:03;98060.06;;;6.39;75.28
49178;BME280;35016;55.674;37.468;2023-10-19T05:34:30;98049.31;;;6.39;75.03
49178;BME280;35016;55.674;37.468;2023-10-19T05:37:00;98049.84;;;6.41;75.29
49178;BME280;35016;55.674;37.468;2023-10-19T05:39:30;98049.03;;;6.45;74.68
49178;BME280;35016;55.674;37.468;2023-10-19T05:41:58;98059.25;;;6.48;74.81
49178;BME280;35016;55.674;37.468;2023-10-19T05:44:29;98054.16;;;6.52;75.19
49178;BME280;35016;55.674;37.468;2023-10-19T05:46:58;98058.44;;;6.53;74.57
49178;BME280;35016;55.674;37.468;2023-10-19T05:49:26;98054.69;;;6.54;74.75
49178;BME280;35016;55.674;37.468;2023-10-19T05:51:56;98059.25;;;6.59;74.81
49178;BME280;35016;55.674;37.468;2023-10-19T05:54:23;98067.88;;;6.61;74.64
49178;BME280;35016;55.674;37.468;2023-10-19T05:56:51;98064.91;;;6.62;74.53
49178;BME280;35016;55.674;37.468;2023-10-19T05:59:20;98064.66;;;6.64;74.62
49178;BME280;35016;55.674;37.468;2023-10-19T06:01:48;98060.06;;;6.64;74.42
49178;BME280;35016;55.674;37.468;2023-10-19T06:04:16;98065.22;;;6.71;74.58
49178;BME280;35016;55.674;37.468;2023-10-19T06:06:47;98062.78;;;6.74;74.65
49178;BME280;35016;55.674;37.468;2023-10-19T06:09:16;98069.50;;;6.77;74.19
49178;BME280;35016;55.674;37.468;2023-10-19T06:11:44;98066.53;;;6.83;74.32
49178;BME280;35016;55.674;37.468;2023-10-19T06:14:12;98059.25;;;6.89;74.42
49178;BME280;35016;55.674;37.468;2023-10-19T06:16:40;98069.78;;;6.96;73.86
49178;BME280;35016;55.674;37.468;2023-10-19T06:19:07;98064.13;;;6.97;74.10
49178;BME280;35016;55.674;37.468;2023-10-19T06:21:36;98059.25;;;7.04;74.26
49178;BME280;35016;55.674;37.468;2023-10-19T06:24:03;98052.50;;;7.12;73.90
49178;BME280;35016;55.674;37.468;2023-10-19T06:26:30;98066.50;;;7.19;73.94
49178;BME280;35016;55.674;37.468;2023-10-19T06:28:58;98071.88;;;7.29;73.32
49178;BME280;35016;55.674;37.468;2023-10-19T06:31:29;98066.22;;;7.31;73.18
49178;BME280;35016;55.674;37.468;2023-10-19T06:33:57;98064.84;;;7.33;73.60
49178;BME280;35016;55.674;37.468;2023-10-19T06:36:25;98071.84;;;7.39;73.51
49178;BME280;35016;55.674;37.468;2023-10-19T06:38:52;98064.81;;;7.43;73.37
49178;BME280;35016;55.674;37.468;2023-10-19T06:41:22;98063.72;;;7.50;72.89
49178;BME280;35016;55.674;37.468;2023-10-19T06:43:49;98062.66;;;7.56;72.81
49178;BME280;35016;55.674;37.468;2023-10-19T06:46:17;98066.41;;;7.60;73.04
49178;BME280;35016;55.674;37.468;2023-10-19T06:48:45;98055.63;;;7.60;72.78
49178;BME280;35016;55.674;37.468;2023-10-19T06:51:12;98061.78;;;7.65;72.43
49178;BME280;35016;55.674;37.468;2023-10-19T06:53:39;98059.31;;;7.74;72.90
49178;BME280;35016;55.674;37.468;2023-10-19T06:56:07;98062.56;;;7.81;72.42
49178;BME280;35016;55.674;37.468;2023-10-19T06:58:34;98064.41;;;7.86;72.41
49178;BME280;35016;55.674;37.468;2023-10-19T07:01:07;98058.75;;;7.87;72.12
49178;BME280;35016;55.674;37.468;2023-10-19T07:03:35;98068.16;;;7.90;72.00
49178;BME280;35016;55.674;37.468;2023-10-19T07:06:04;98070.31;;;7.93;72.37
49178;BME280;35016;55.674;37.468;2023-10-19T07:08:39;98063.81;;;7.99;72.22
49178;BME280;35016;55.674;37.468;2023-10-19T07:11:08;98075.09;;;8.06;71.96
49178;BME280;35016;55.674;37.468;2023-10-19T07:13:36;98075.91;;;8.12;71.79
49178;BME280;35016;55.674;37.468;2023-10-19T07:16:04;98077.25;;;8.14;71.57
49178;BME280;35016;55.674;37.468;2023-10-19T07:18:32;98081.56;;;8.15;71.01
49178;BME280;35016;55.674;37.468;2023-10-19T07:20:59;98073.72;;;8.14;71.19
49178;BME280;35016;55.674;37.468;2023-10-19T07:23:36;98079.06;;;8.24;70.87
49178;BME280;35016;55.674;37.468;2023-10-19T07:26:07;98077.16;;;8.24;70.64
49178;BME280;35016;55.674;37.468;2023-10-19T07:28:35;98078.78;;;8.25;70.57
49178;BME280;35016;55.674;37.468;2023-10-19T07:31:05;98086.88;;;8.25;70.35
49178;BME280;35016;55.674;37.468;2023-10-19T07:33:39;98075.28;;;8.25;70.26
49178;BME280;35016;55.674;37.468;2023-10-19T07:36:13;98086.34;;;8.23;70.36
49178;BME280;35016;55.674;37.468;2023-10-19T07:38:45;98086.66;;;8.17;70.21
49178;BME280;35016;55.674;37.468;2023-10-19T07:41:14;98091.28;;;8.06;70.40
49178;BME280;35016;55.674;37.468;2023-10-19T07:43:42;98082.41;;;8.00;70.53
49178;BME280;35016;55.674;37.468;2023-10-19T07:46:10;98080.84;;;7.94;70.78
49178;BME280;35016;55.674;37.468;2023-10-19T07:48:39;98084.91;;;7.92;70.60
49178;BME280;35016;55.674;37.468;2023-10-19T07:51:08;98086.28;;;7.84;70.72
49178;BME280;35016;55.674;37.468;2023-10-19T07:53:35;98088.97;;;7.79;70.79
49178;BME280;35016;55.674;37.468;2023-10-19T07:56:03;98093.59;;;7.73;70.68
49178;BME280;35016;55.674;37.468;2023-10-19T07:58:30;98093.34;;;7.70;71.01
49178;BME280;35016;55.674;37.468;2023-10-19T08:00:58;98101.19;;;7.66;71.04
49178;BME280;35016;55.674;37.468;2023-10-19T08:03:25;98098.75;;;7.65;70.94
49178;BME280;35016;55.674;37.468;2023-10-19T08:05:53;98097.94;;;7.64;71.24
49178;BME280;35016;55.674;37.468;2023-10-19T08:08:21;98096.06;;;7.65;71.38
49178;BME280;35016;55.674;37.468;2023-10-19T08:10:51;98094.94;;;7.71;71.42
49178;BME280;35016;55.674;37.468;2023-10-19T08:13:19;98087.09;;;7.74;71.39
49178;BME280;35016;55.674;37.468;2023-10-19T08:15:46;98092.25;;;7.81;71.68
49178;BME280;35016;55.674;37.468;2023-10-19T08:18:13;98091.94;;;7.88;71.32
49178;BME280;35016;55.674;37.468;2023-10-19T08:20:42;98100.28;;;7.91;71.50
49178;BME280;35016;55.674;37.468;2023-10-19T08:23:13;98097.03;;;7.94;71.41
49178;BME280;35016;55.674;37.468;2023-10-19T08:25:45;98091.06;;;7.97;71.11
49178;BME280;35016;55.674;37.468;2023-10-19T08:28:23;98101.59;;;7.99;71.33
49178;BME280;35016;55.674;37.468;2023-10-19T08:30:51;98099.44;;;7.96;71.03
49178;BME280;35016;55.674;37.468;2023-10-19T08:33:25;98100.03;;;7.88;71.30
49178;BME280;35016;55.674;37.468;2023-10-19T08:35:54;98105.69;;;7.91;71.35
49178;BME280;35016;55.674;37.468;2023-10-19T08:38:22;98096.53;;;7.87;71.76
49178;BME280;35016;55.674;37.468;2023-10-19T08:40:53;98103.28;;;7.85;71.80
49178;BME280;35016;55.674;37.468;2023-10-19T08:43:20;98105.72;;;7.81;71.45
49178;BME280;35016;55.674;37.468;2023-10-19T08:45:48;98101.94;;;7.77;71.58
49178;BME280;35016;55.674;37.468;2023-10-19T08:48:16;98106.00;;;7.74;71.63
49178;BME280;35016;55.674;37.468;2023-10-19T08:50:44;98098.72;;;7.70;71.92
49178;BME280;35016;55.674;37.468;2023-10-19T08:53:13;98101.97;;;7.67;71.90
49178;BME280;35016;55.674;37.468;2023-10-19T08:55:46;98107.91;;;7.69;72.11
49178;BME280;35016;55.674;37.468;2023-10-19T08:58:17;98109.78;;;7.73;72.43
49178;BME280;35016;55.674;37.468;2023-10-19T09:00:47;98110.03;;;7.77;72.35
49178;BME280;35016;55.674;37.468;2023-10-19T09:03:16;98115.97;;;7.84;72.49
49178;BME280;35016;55.674;37.468;2023-10-19T09:05:45;98118.66;;;7.89;72.34
49178;BME280;35016;55.674;37.468;2023-10-19T09:08:17;98114.84;;;7.95;72.04
49178;BME280;35016;55.674;37.468;2023-10-19T09:10:46;98120.19;;;8.05;72.10
49178;BME280;35016;55.674;37.468;2023-10-19T09:13:14;98124.50;;;8.12;72.25
49178;BME280;35016;55.674;37.468;2023-10-19T09:15:47;98116.38;;;8.17;71.72
49178;BME280;35016;55.674;37.468;2023-10-19T09:18:25;98126.63;;;8.20;71.60
49178;BME280;35016;55.674;37.468;2023-10-19T09:20:57;98122.53;;;8.22;71.42
49178;BME280;35016;55.674;37.468;2023-10-19T09:23:35;98116.06;;;8.23;71.29
49178;BME280;35016;55.674;37.468;2023-10-19T09:26:07;98127.66;;;8.24;71.25
49178;BME280;35016;55.674;37.468;2023-10-19T09:28:36;98120.91;;;8.26;71.04
49178;BME280;35016;55.674;37.468;2023-10-19T09:31:05;98118.16;;;8.31;71.04
49178;BME280;35016;55.674;37.468;2023-10-19T09:33:40;98120.34;;;8.40;70.86
49178;BME280;35016;55.674;37.468;2023-10-19T09:36:09;98124.91;;;8.44;70.89
49178;BME280;35016;55.674;37.468;2023-10-19T09:38:48;98125.09;;;8.53;70.37
49178;BME280;35016;55.674;37.468;2023-10-19T09:41:24;98121.31;;;8.54;70.10
49178;BME280;35016;55.674;37.468;2023-10-19T09:44:06;98125.06;;;8.58;69.75
49178;BME280;35016;55.674;37.468;2023-10-19T09:46:38;98122.41;;;8.53;70.60
49178;BME280;35016;55.674;37.468;2023-10-19T09:49:07;98130.78;;;8.51;71.32
49178;BME280;35016;55.674;37.468;2023-10-19T09:51:39;98121.03;;;8.55;71.08
49178;BME280;35016;55.674;37.468;2023-10-19T09:56:41;98111.16;;;8.80;70.70
49178;BME280;35016;55.674;37.468;2023-10-19T09:59:35;98117.78;;;8.97;70.35
49178;BME280;35016;55.674;37.468;2023-10-19T10:02:08;98114.41;;;9.11;70.51
49178;BME280;35016;55.674;37.468;2023-10-19T10:04:39;98126.38;;;9.34;70.01
49178;BME280;35016;55.674;37.468;2023-10-19T10:07:08;98127.81;;;9.55;69.67
49178;BME280;35016;55.674;37.468;2023-10-19T10:09:40;98120.84;;;9.73;69.10
49178;BME280;35016;55.674;37.468;2023-10-19T10:12:25;98128.22;;;9.91;68.65
49178;BME280;35016;55.674;37.468;2023-10-19T10:14:58;98129.19;;;10.00;68.84
49178;BME280;35016;55.674;37.468;2023-10-19T10:17:26;98124.50;;;10.06;69.01
49178;BME280;35016;55.674;37.468;2023-10-19T10:22:45;98125.75;;;9.94;68.76
49178;BME280;35016;55.674;37.468;2023-10-19T10:25:34;98130.69;;;9.87;67.79
49178;BME280;35016;55.674;37.468;2023-10-19T10:28:03;98134.38;;;9.73;67.69
49178;BME280;35016;55.674;37.468;2023-10-19T10:30:30;98129.72;;;9.49;68.25
49178;BME280;35016;55.674;37.468;2023-10-19T10:32:58;98122.13;;;9.27;68.25
49178;BME280;35016;55.674;37.468;2023-10-19T10:38:05;98120.75;;;8.96;68.57
49178;BME280;35016;55.674;37.468;2023-10-19T10:40:45;98114.03;;;8.88;68.74
49178;BME280;35016;55.674;37.468;2023-10-19T10:43:13;98115.41;;;8.86;69.18
49178;BME280;35016;55.674;37.468;2023-10-19T10:45:40;98127.88;;;8.82;69.33
49178;BME280;35016;55.674;37.468;2023-10-19T10:48:17;98132.53;;;8.76;69.17
49178;BME280;35016;55.674;37.468;2023-10-19T10:50:46;98123.38;;;8.67;69.17
49178;BME280;35016;55.674;37.468;2023-10-19T10:53:14;98136.97;;;8.57;69.24
49178;BME280;35016;55.674;37.468;2023-10-19T10:55:45;98130.31;;;8.44;69.47
49178;BME280;35016;55.674;37.468;2023-10-19T10:58:19;98139.25;;;8.34;69.82
49178;BME280;35016;55.674;37.468;2023-10-19T11:00:47;98139.84;;;8.21;69.83
49178;BME280;35016;55.674;37.468;2023-10-19T11:03:16;98130.69;;;8.07;69.73
49178;BME280;35016;55.674;37.468;2023-10-19T11:05:43;98134.53;;;7.96;69.61
49178;BME280;35016;55.674;37.468;2023-10-19T11:08:16;98129.69;;;7.93;69.84
49178;BME280;35016;55.674;37.468;2023-10-19T11:10:45;98138.38;;;7.85;69.71
49178;BME280;35016;55.674;37.468;2023-10-19T11:13:22;98140.00;;;7.75;69.52
49178;BME280;35016;55.674;37.468;2023-10-19T11:15:55;98137.84;;;7.72;70.12
49178;BME280;35016;55.674;37.468;2023-10-19T11:21:02;98136.47;;;7.80;70.29
49178;BME280;35016;55.674;37.468;2023-10-19T11:26:10;98139.44;;;7.89;70.15
49178;BME280;35016;55.674;37.468;2023-10-19T11:28:39;98138.59;;;7.93;70.18
49178;BME280;35016;55.674;37.468;2023-10-19T11:31:17;98142.06;;;8.04;70.60
49178;BME280;35016;55.674;37.468;2023-10-19T11:33:46;98139.34;;;8.14;70.59
49178;BME280;35016;55.674;37.468;2023-10-19T11:36:18;98138.72;;;8.27;70.39
49178;BME280;35016;55.674;37.468;2023-10-19T11:38:51;98141.66;;;8.41;70.28
49178;BME280;35016;55.674;37.468;2023-10-19T11:41:21;98134.31;;;8.52;70.04
49178;BME280;35016;55.674;37.468;2023-10-19T11:43:50;98131.00;;;8.60;70.19
49178;BME280;35016;55.674;37.468;2023-10-19T11:46:17;98128.25;;;8.65;69.99
49178;BME280;35016;55.674;37.468;2023-10-19T11:48:45;98139.06;;;8.70;69.74
49178;BME280;35016;55.674;37.468;2023-10-19T11:51:14;98131.47;;;8.72;69.98
49178;BME280;35016;55.674;37.468;2023-10-19T11:53:42;98139.88;;;8.71;69.63
49178;BME280;35016;55.674;37.468;2023-10-19T11:56:11;98129.63;;;8.67;70.08
49178;BME280;35016;55.674;37.468;2023-10-19T11:58:40;98126.63;;;8.69;69.83
49178;BME280;35016;55.674;37.468;2023-10-19T12:01:10;98133.09;;;8.73;70.03
49178;BME280;35016;55.674;37.468;2023-10-19T12:03:44;98130.34;;;8.78;70.08
49178;BME280;35016;55.674;37.468;2023-10-19T12:06:16;98133.81;;;8.84;69.87
49178;BME280;35016;55.674;37.468;2023-10-19T12:08:47;98128.38;;;8.89;69.72
49178;BME280;35016;55.674;37.468;2023-10-19T12:11:14;98135.63;;;8.93;69.01
49178;BME280;35016;55.674;37.468;2023-10-19T12:13:43;98129.47;;;8.88;68.89
49178;BME280;35016;55.674;37.468;2023-10-19T12:16:15;98136.00;;;8.82;68.86
49178;BME280;35016;55.674;37.468;2023-10-19T12:18:44;98132.56;;;8.71;69.10
49178;BME280;35016;55.674;37.468;2023-10-19T12:21:12;98141.25;;;8.63;69.46
49178;BME280;35016;55.674;37.468;2023-10-19T12:23:40;98142.38;;;8.57;69.19
49178;BME280;35016;55.674;37.468;2023-10-19T12:26:08;98143.50;;;8.51;69.81
49178;BME280;35016;55.674;37.468;2023-10-19T12:28:42;98140.31;;;8.44;69.37
49178;BME280;35016;55.674;37.468;2023-10-19T12:31:13;98146.25;;;8.41;69.90
49178;BME280;35016;55.674;37.468;2023-10-19T12:33:41;98140.59;;;8.37;69.47
49178;BME280;35016;55.674;37.468;2023-10-19T12:36:08;98139.50;;;8.33;69.64
49178;BME280;35016;55.674;37.468;2023-10-19T12:38:55;98140.88;;;8.35;69.76
49178;BME280;35016;55.674;37.468;2023-10-19T12:41:23;98145.19;;;8.36;69.59
49178;BME280;35016;55.674;37.468;2023-10-19T12:43:54;98143.28;;;8.37;69.44
49178;BME280;35016;55.674;37.468;2023-10-19T12:46:48;98146.78;;;8.37;69.60
49178;BME280;35016;55.674;37.468;2023-10-19T12:49:15;98136.78;;;8.33;69.54
49178;BME280;35016;55.674;37.468;2023-10-19T12:51:45;98145.97;;;8.37;69.28
49178;BME280;35016;55.674;37.468;2023-10-19T12:54:13;98145.72;;;8.38;69.49
49178;BME280;35016;55.674;37.468;2023-10-19T12:56:40;98144.09;;;8.37;69.46
49178;BME280;35016;55.674;37.468;2023-10-19T12:59:08;98143.84;;;8.34;69.26
49178;BME280;35016;55.674;37.468;2023-10-19T13:01:38;98149.25;;;8.29;69.39
49178;BME280;35016;55.674;37.468;2023-10-19T13:04:07;98145.72;;;8.28;69.07
49178;BME280;35016;55.674;37.468;2023-10-19T13:06:47;98147.66;;;8.23;69.22
49178;BME280;35016;55.674;37.468;2023-10-19T13:09:15;98142.56;;;8.16;69.25
49178;BME280;35016;55.674;37.468;2023-10-19T13:11:49;98150.97;;;8.10;69.39
49178;BME280;35016;55.674;37.468;2023-10-19T13:14:19;98143.69;;;8.00;69.49
49178;BME280;35016;55.674;37.468;2023-10-19T13:16:46;98152.06;;;7.98;69.79
49178;BME280;35016;55.674;37.468;2023-10-19T13:19:20;98150.72;;;7.96;69.43
49178;BME280;35016;55.674;37.468;2023-10-19T13:21:52;98145.34;;;7.91;69.61
49178;BME280;35016;55.674;37.468;2023-10-19T13:24:21;98146.72;;;7.88;69.72
49178;BME280;35016;55.674;37.468;2023-10-19T13:26:48;98149.69;;;7.87;69.71
49178;BME280;35016;55.674;37.468;2023-10-19T13:29:15;98156.19;;;7.86;69.69
49178;BME280;35016;55.674;37.468;2023-10-19T13:31:44;98157.25;;;7.85;69.51